sensor_id;sensor_type;location;lat;lon;timestamp;pressure;altitude;pressure_sealevel;temperature;humidity
62978;BME280;49073;42.352;23.808;2023-04-02T00:08:37;93786.56;;;6.81;68.33
62978;BME280;49073;42.352;23.808;2023-04-02T00:11:46;93785.84;;;6.84;69.29
62978;BME280;49073;42.352;23.808;2023-04-02T00:14:51;93784.00;;;6.85;69.43
62978;BME280;49073;42.352;23.808;2023-04-02T00:17:52;93770.75;;;6.85;69.46
62978;BME280;49073;42.352;23.808;2023-04-02T00:21:18;93775.69;;;6.87;69.32
62978;BME280;49073;42.352;23.808;2023-04-02T00:24:21;93789.75;;;6.91;69.23
62978;BME280;49073;42.352;23.808;2023-04-02T00:27:22;93793.94;;;6.92;68.67
62978;BME280;49073;42.352;23.808;2023-04-02T00:30:23;93791.28;;;6.92;68.80
62978;BME280;49073;42.352;23.808;2023-04-02T00:33:26;93792.16;;;6.76;69.22
62978;BME280;49073;42.352;23.808;2023-04-02T00:36:30;93782.97;;;6.70;69.49
62978;BME280;49073;42.352;23.808;2023-04-02T00:39:37;93781.28;;;6.62;69.35
62978;BME280;49073;42.352;23.808;2023-04-02T00:42:40;93774.34;;;6.53;69.59
62978;BME280;49073;42.352;23.808;2023-04-02T00:45:43;93771.00;;;6.57;69.09
62978;BME280;49073;42.352;23.808;2023-04-02T00:49:07;93768.34;;;6.57;69.80
62978;BME280;49073;42.352;23.808;2023-04-02T00:52:13;93774.09;;;6.62;68.65
62978;BME280;49073;42.352;23.808;2023-04-02T00:55:44;93764.63;;;6.61;69.23
62978;BME280;49073;42.352;23.808;2023-04-02T00:58:51;93770.00;;;6.65;69.29
62978;BME280;49073;42.352;23.808;2023-04-02T01:19:25;93795.91;;;6.75;68.51
62978;BME280;49073;42.352;23.808;2023-04-02T01:22:08;93803.94;;;6.79;68.57
62978;BME280;49073;42.352;23.808;2023-04-02T01:25:18;93804.59;;;6.76;68.54
62978;BME280;49073;42.352;23.808;2023-04-02T01:31:29;93804.84;;;6.67;68.47
62978;BME280;49073;42.352;23.808;2023-04-02T01:34:33;93809.06;;;6.72;68.63
62978;BME280;49073;42.352;23.808;2023-04-02T01:41:08;93805.13;;;6.62;68.50
62978;BME280;49073;42.352;23.808;2023-04-02T01:44:19;93798.72;;;6.63;68.00
62978;BME280;49073;42.352;23.808;2023-04-02T01:47:23;93800.28;;;6.67;67.91
62978;BME280;49073;42.352;23.808;2023-04-02T01:50:47;93790.06;;;6.66;68.57
62978;BME280;49073;42.352;23.808;2023-04-02T01:53:49;93788.16;;;6.66;68.50
62978;BME280;49073;42.352;23.808;2023-04-02T01:56:50;93792.84;;;6.73;67.65
62978;BME280;49073;42.352;23.808;2023-04-02T01:59:51;93793.59;;;6.74;68.13
62978;BME280;49073;42.352;23.808;2023-04-02T02:02:52;93791.81;;;6.78;68.04
62978;BME280;49073;42.352;23.808;2023-04-02T02:05:53;93789.41;;;6.73;68.17
62978;BME280;49073;42.352;23.808;2023-04-02T02:09:01;93790.41;;;6.84;67.58
62978;BME280;49073;42.352;23.808;2023-04-02T02:12:03;93793.09;;;6.88;67.01
62978;BME280;49073;42.352;23.808;2023-04-02T02:15:11;93794.63;;;6.89;67.09
62978;BME280;49073;42.352;23.808;2023-04-02T02:18:16;93794.00;;;6.95;66.76
62978;BME280;49073;42.352;23.808;2023-04-02T02:21:46;93793.31;;;6.98;66.92
62978;BME280;49073;42.352;23.808;2023-04-02T02:24:49;93792.53;;;6.98;66.78
62978;BME280;49073;42.352;23.808;2023-04-02T02:28:49;93803.47;;;6.96;67.27
62978;BME280;49073;42.352;23.808;2023-04-02T02:31:28;93803.41;;;6.93;67.17
62978;BME280;49073;42.352;23.808;2023-04-02T02:34:44;93799.19;;;6.88;67.04
62978;BME280;49073;42.352;23.808;2023-04-02T02:37:51;93798.41;;;6.88;68.09
62978;BME280;49073;42.352;23.808;2023-04-02T02:40:57;93811.50;;;6.80;69.44
62978;BME280;49073;42.352;23.808;2023-04-02T02:47:15;93813.13;;;6.85;68.91
62978;BME280;49073;42.352;23.808;2023-04-02T02:50:26;93818.13;;;6.70;70.03
62978;BME280;49073;42.352;23.808;2023-04-02T02:53:29;93815.06;;;6.49;70.71
62978;BME280;49073;42.352;23.808;2023-04-02T02:56:31;93819.03;;;6.39;70.82
62978;BME280;49073;42.352;23.808;2023-04-02T02:59:34;93811.91;;;6.43;70.23
62978;BME280;49073;42.352;23.808;2023-04-02T03:02:36;93800.44;;;6.35;70.56
62978;BME280;49073;42.352;23.808;2023-04-02T03:05:39;93803.56;;;6.41;70.44
62978;BME280;49073;42.352;23.808;2023-04-02T03:08:44;93805.69;;;6.51;69.51
62978;BME280;49073;42.352;23.808;2023-04-02T03:15:16;93797.19;;;6.62;69.09
62978;BME280;49073;42.352;23.808;2023-04-02T03:21:51;93805.03;;;6.78;68.08
62978;BME280;49073;42.352;23.808;2023-04-02T03:25:00;93800.59;;;6.82;67.52
62978;BME280;49073;42.352;23.808;2023-04-02T03:28:12;93808.25;;;6.87;67.04
62978;BME280;49073;42.352;23.808;2023-04-02T03:31:24;93803.97;;;6.82;67.62
62978;BME280;49073;42.352;23.808;2023-04-02T03:34:36;93809.56;;;6.77;67.08
62978;BME280;49073;42.352;23.808;2023-04-02T03:37:45;93812.34;;;6.84;66.42
62978;BME280;49073;42.352;23.808;2023-04-02T03:53:27;93820.06;;;6.74;66.84
62978;BME280;49073;42.352;23.808;2023-04-02T03:56:31;93823.31;;;6.83;67.22
62978;BME280;49073;42.352;23.808;2023-04-02T03:59:44;93823.34;;;6.87;66.56
62978;BME280;49073;42.352;23.808;2023-04-02T04:03:15;93823.91;;;6.76;66.79
62978;BME280;49073;42.352;23.808;2023-04-02T04:06:28;93820.66;;;6.83;66.23
62978;BME280;49073;42.352;23.808;2023-04-02T04:09:34;93816.94;;;6.88;65.85
62978;BME280;49073;42.352;23.808;2023-04-02T04:12:42;93816.66;;;6.93;65.69
62978;BME280;49073;42.352;23.808;2023-04-02T04:16:09;93815.53;;;6.94;65.11
62978;BME280;49073;42.352;23.808;2023-04-02T04:22:26;93814.25;;;6.84;65.81
62978;BME280;49073;42.352;23.808;2023-04-02T04:25:31;93814.94;;;6.81;66.44
62978;BME280;49073;42.352;23.808;2023-04-02T04:35:33;93805.22;;;6.89;65.69
62978;BME280;49073;42.352;23.808;2023-04-02T04:38:37;93814.78;;;6.93;65.52
62978;BME280;49073;42.352;23.808;2023-04-02T04:41:44;93822.06;;;7.00;65.21
62978;BME280;49073;42.352;23.808;2023-04-02T04:48:03;93808.63;;;7.09;64.20
62978;BME280;49073;42.352;23.808;2023-04-02T04:51:15;93814.09;;;7.20;63.95
62978;BME280;49073;42.352;23.808;2023-04-02T04:54:16;93815.75;;;7.28;63.76
62978;BME280;49073;42.352;23.808;2023-04-02T05:00:50;93812.88;;;7.37;63.25
62978;BME280;49073;42.352;23.808;2023-04-02T05:04:14;93817.19;;;7.45;62.74
62978;BME280;49073;42.352;23.808;2023-04-02T05:07:18;93822.59;;;7.52;62.58
62978;BME280;49073;42.352;23.808;2023-04-02T05:10:36;93825.25;;;7.52;63.18
62978;BME280;49073;42.352;23.808;2023-04-02T05:13:53;93816.88;;;7.50;63.97
62978;BME280;49073;42.352;23.808;2023-04-02T05:20:34;93824.94;;;7.57;62.67
62978;BME280;49073;42.352;23.808;2023-04-02T05:23:47;93825.13;;;7.68;62.27
62978;BME280;49073;42.352;23.808;2023-04-02T05:26:51;93833.91;;;7.72;61.88
62978;BME280;49073;42.352;23.808;2023-04-02T05:29:59;93832.47;;;7.79;62.46
62978;BME280;49073;42.352;23.808;2023-04-02T05:33:17;93830.69;;;7.86;62.09
62978;BME280;49073;42.352;23.808;2023-04-02T05:36:26;93835.34;;;7.93;61.05
62978;BME280;49073;42.352;23.808;2023-04-02T05:39:28;93835.81;;;7.99;61.06
62978;BME280;49073;42.352;23.808;2023-04-02T05:42:31;93839.69;;;8.05;60.68
62978;BME280;49073;42.352;23.808;2023-04-02T05:45:36;93832.47;;;8.06;60.52
62978;BME280;49073;42.352;23.808;2023-04-02T05:48:39;93838.66;;;8.13;59.46
62978;BME280;49073;42.352;23.808;2023-04-02T05:51:45;93837.56;;;8.18;60.19
62978;BME280;49073;42.352;23.808;2023-04-02T05:54:52;93847.88;;;8.23;59.25
62978;BME280;49073;42.352;23.808;2023-04-02T05:57:59;93849.88;;;8.30;59.91
62978;BME280;49073;42.352;23.808;2023-04-02T06:01:22;93862.91;;;8.39;58.35
62978;BME280;49073;42.352;23.808;2023-04-02T06:04:35;93854.22;;;8.42;59.75
62978;BME280;49073;42.352;23.808;2023-04-02T06:07:49;93850.94;;;8.52;59.14
62978;BME280;49073;42.352;23.808;2023-04-02T06:11:17;93862.31;;;8.53;58.47
62978;BME280;49073;42.352;23.808;2023-04-02T06:14:16;93861.56;;;8.52;59.13
62978;BME280;49073;42.352;23.808;2023-04-02T06:17:19;93871.53;;;8.59;58.81
62978;BME280;49073;42.352;23.808;2023-04-02T06:20:20;93871.16;;;8.61;59.10
62978;BME280;49073;42.352;23.808;2023-04-02T06:23:22;93873.97;;;8.71;59.15
62978;BME280;49073;42.352;23.808;2023-04-02T06:29:39;93868.75;;;8.82;58.08
62978;BME280;49073;42.352;23.808;2023-04-02T06:32:41;93883.38;;;8.96;59.13
62978;BME280;49073;42.352;23.808;2023-04-02T06:35:42;93886.03;;;8.96;58.24
62978;BME280;49073;42.352;23.808;2023-04-02T06:38:47;93876.75;;;9.16;58.48
62978;BME280;49073;42.352;23.808;2023-04-02T06:41:57;93871.56;;;9.27;57.62
62978;BME280;49073;42.352;23.808;2023-04-02T06:44:59;93879.34;;;9.47;58.82
62978;BME280;49073;42.352;23.808;2023-04-02T06:48:01;93886.28;;;9.59;56.76
62978;BME280;49073;42.352;23.808;2023-04-02T06:51:06;93891.28;;;9.64;56.58
62978;BME280;49073;42.352;23.808;2023-04-02T06:54:12;93895.53;;;9.72;55.90
62978;BME280;49073;42.352;23.808;2023-04-02T06:57:14;93878.19;;;9.89;56.72
62978;BME280;49073;42.352;23.808;2023-04-02T07:00:34;93889.69;;;10.01;54.94
62978;BME280;49073;42.352;23.808;2023-04-02T07:03:35;93892.78;;;10.07;53.45
62978;BME280;49073;42.352;23.808;2023-04-02T07:06:36;93883.28;;;10.09;53.98
62978;BME280;49073;42.352;23.808;2023-04-02T07:09:37;93892.53;;;10.30;52.23
62978;BME280;49073;42.352;23.808;2023-04-02T07:12:38;93902.56;;;10.40;52.32
62978;BME280;49073;42.352;23.808;2023-04-02T07:15:38;93904.09;;;10.45;50.43
62978;BME280;49073;42.352;23.808;2023-04-02T07:18:39;93907.53;;;10.49;50.62
62978;BME280;49073;42.352;23.808;2023-04-02T07:21:40;93903.72;;;10.50;50.81
62978;BME280;49073;42.352;23.808;2023-04-02T07:24:41;93902.00;;;10.80;52.52
62978;BME280;49073;42.352;23.808;2023-04-02T07:27:41;93904.69;;;10.83;51.17
62978;BME280;49073;42.352;23.808;2023-04-02T07:30:43;93907.72;;;10.82;50.67
62978;BME280;49073;42.352;23.808;2023-04-02T07:33:44;93898.59;;;10.83;50.01
62978;BME280;49073;42.352;23.808;2023-04-02T07:36:45;93901.75;;;11.10;50.78
62978;BME280;49073;42.352;23.808;2023-04-02T07:39:48;93904.88;;;11.30;51.38
62978;BME280;49073;42.352;23.808;2023-04-02T07:42:49;93914.03;;;11.33;49.26
62978;BME280;49073;42.352;23.808;2023-04-02T07:45:49;93915.16;;;11.25;49.96
62978;BME280;49073;42.352;23.808;2023-04-02T07:48:51;93909.44;;;11.26;49.97
62978;BME280;49073;42.352;23.808;2023-04-02T07:51:52;93908.66;;;11.29;49.47
62978;BME280;49073;42.352;23.808;2023-04-02T07:54:52;93904.91;;;11.45;48.99
62978;BME280;49073;42.352;23.808;2023-04-02T07:57:55;93904.94;;;11.59;48.70
62978;BME280;49073;42.352;23.808;2023-04-02T08:00:58;93896.59;;;11.72;49.85
62978;BME280;49073;42.352;23.808;2023-04-02T08:04:02;93916.41;;;11.74;48.50
62978;BME280;49073;42.352;23.808;2023-04-02T08:07:03;93901.56;;;11.81;47.65
62978;BME280;49073;42.352;23.808;2023-04-02T08:10:05;93909.22;;;12.00;46.82
62978;BME280;49073;42.352;23.808;2023-04-02T08:13:05;93906.94;;;12.02;48.38
62978;BME280;49073;42.352;23.808;2023-04-02T08:16:06;93911.88;;;12.29;48.57
62978;BME280;49073;42.352;23.808;2023-04-02T08:19:07;93909.59;;;12.31;47.39
62978;BME280;49073;42.352;23.808;2023-04-02T08:22:08;93907.63;;;12.61;48.08
62978;BME280;49073;42.352;23.808;2023-04-02T08:25:08;93915.69;;;12.50;45.90
62978;BME280;49073;42.352;23.808;2023-04-02T08:28:10;93920.28;;;12.39;44.68
62978;BME280;49073;42.352;23.808;2023-04-02T08:31:11;93917.59;;;12.49;44.01
62978;BME280;49073;42.352;23.808;2023-04-02T08:34:12;93914.16;;;12.56;44.34
62978;BME280;49073;42.352;23.808;2023-04-02T08:37:13;93915.66;;;12.72;43.16
62978;BME280;49073;42.352;23.808;2023-04-02T08:44:07;93917.88;;;12.99;44.37
62978;BME280;49073;42.352;23.808;2023-04-02T08:47:09;93918.63;;;12.95;43.63
62978;BME280;49073;42.352;23.808;2023-04-02T08:50:37;93913.28;;;13.03;43.55
62978;BME280;49073;42.352;23.808;2023-04-02T08:53:39;93902.97;;;13.01;43.57
62978;BME280;49073;42.352;23.808;2023-04-02T08:56:45;93906.34;;;13.13;44.06
62978;BME280;49073;42.352;23.808;2023-04-02T08:59:57;93907.19;;;12.99;41.61
62978;BME280;49073;42.352;23.808;2023-04-02T09:03:20;93919.41;;;12.92;40.01
62978;BME280;49073;42.352;23.808;2023-04-02T09:06:26;93909.06;;;12.94;41.08
62978;BME280;49073;42.352;23.808;2023-04-02T09:09:34;93919.69;;;13.27;42.66
62978;BME280;49073;42.352;23.808;2023-04-02T09:12:36;93918.84;;;13.41;41.31
62978;BME280;49073;42.352;23.808;2023-04-02T09:15:37;93919.19;;;13.50;41.31
62978;BME280;49073;42.352;23.808;2023-04-02T09:18:39;93919.97;;;13.47;40.72
62978;BME280;49073;42.352;23.808;2023-04-02T09:21:46;93919.78;;;13.84;40.76
62978;BME280;49073;42.352;23.808;2023-04-02T09:24:53;93910.59;;;14.34;42.51
62978;BME280;49073;42.352;23.808;2023-04-02T09:27:56;93918.38;;;14.21;42.02
62978;BME280;49073;42.352;23.808;2023-04-02T09:31:11;93907.09;;;13.95;41.69
62978;BME280;49073;42.352;23.808;2023-04-02T09:34:33;93909.03;;;13.91;41.71
62978;BME280;49073;42.352;23.808;2023-04-02T09:37:33;93901.66;;;14.02;41.67
62978;BME280;49073;42.352;23.808;2023-04-02T09:40:47;93879.78;;;14.15;40.59
62978;BME280;49073;42.352;23.808;2023-04-02T09:43:48;93885.25;;;14.42;40.52
62978;BME280;49073;42.352;23.808;2023-04-02T09:46:57;93876.41;;;14.49;39.09
62978;BME280;49073;42.352;23.808;2023-04-02T09:50:33;93888.53;;;14.99;40.46
62978;BME280;49073;42.352;23.808;2023-04-02T09:53:35;93878.16;;;15.05;40.16
62978;BME280;49073;42.352;23.808;2023-04-02T09:56:38;93871.63;;;15.06;39.15
62978;BME280;49073;42.352;23.808;2023-04-02T09:59:39;93859.38;;;15.36;39.72
62978;BME280;49073;42.352;23.808;2023-04-02T10:02:39;93867.22;;;15.50;39.69
62978;BME280;49073;42.352;23.808;2023-04-02T10:05:40;93855.91;;;15.35;37.26
62978;BME280;49073;42.352;23.808;2023-04-02T10:08:43;93844.69;;;15.44;39.33
62978;BME280;49073;42.352;23.808;2023-04-02T10:11:45;93865.09;;;15.65;37.70
62978;BME280;49073;42.352;23.808;2023-04-02T10:14:46;93863.84;;;15.46;37.79
62978;BME280;49073;42.352;23.808;2023-04-02T10:18:14;93848.81;;;15.76;39.17
62978;BME280;49073;42.352;23.808;2023-04-02T10:21:24;93861.69;;;15.89;37.59
62978;BME280;49073;42.352;23.808;2023-04-02T10:24:26;93854.66;;;15.98;37.93
62978;BME280;49073;42.352;23.808;2023-04-02T10:34:11;93845.03;;;16.01;38.27
62978;BME280;49073;42.352;23.808;2023-04-02T10:51:43;93830.47;;;16.66;34.58
62978;BME280;49073;42.352;23.808;2023-04-02T10:54:48;93837.75;;;16.66;32.00
62978;BME280;49073;42.352;23.808;2023-04-02T10:57:51;93841.88;;;16.50;33.00
62978;BME280;49073;42.352;23.808;2023-04-02T11:01:26;93851.69;;;16.81;32.10
62978;BME280;49073;42.352;23.808;2023-04-02T11:04:32;93837.94;;;16.99;33.11
62978;BME280;49073;42.352;23.808;2023-04-02T11:07:45;93846.59;;;17.07;33.52
62978;BME280;49073;42.352;23.808;2023-04-02T11:10:56;93855.28;;;16.94;33.12
62978;BME280;49073;42.352;23.808;2023-04-02T11:14:16;93850.34;;;16.93;31.33
62978;BME280;49073;42.352;23.808;2023-04-02T11:17:19;93849.91;;;16.74;37.49
62978;BME280;49073;42.352;23.808;2023-04-02T11:23:56;93835.22;;;16.79;32.77
62978;BME280;49073;42.352;23.808;2023-04-02T11:30:24;93840.31;;;16.93;33.23
62978;BME280;49073;42.352;23.808;2023-04-02T11:33:40;93838.19;;;16.84;35.12
62978;BME280;49073;42.352;23.808;2023-04-02T11:39:54;93828.13;;;17.09;31.99
62978;BME280;49073;42.352;23.808;2023-04-02T11:46:39;93833.09;;;17.47;33.50
62978;BME280;49073;42.352;23.808;2023-04-02T11:49:55;93840.78;;;17.28;33.01
62978;BME280;49073;42.352;23.808;2023-04-02T11:59:38;93828.13;;;17.45;31.60
62978;BME280;49073;42.352;23.808;2023-04-02T12:09:34;93827.56;;;17.18;31.53
62978;BME280;49073;42.352;23.808;2023-04-02T12:12:42;93828.53;;;17.07;32.40
62978;BME280;49073;42.352;23.808;2023-04-02T12:15:44;93819.75;;;17.23;30.75
62978;BME280;49073;42.352;23.808;2023-04-02T12:18:47;93815.69;;;17.15;30.05
62978;BME280;49073;42.352;23.808;2023-04-02T12:21:53;93810.41;;;17.28;30.48
62978;BME280;49073;42.352;23.808;2023-04-02T12:24:57;93805.66;;;17.15;30.34
62978;BME280;49073;42.352;23.808;2023-04-02T12:31:14;93797.22;;;17.67;30.24
62978;BME280;49073;42.352;23.808;2023-04-02T12:34:19;93794.72;;;17.59;31.02
62978;BME280;49073;42.352;23.808;2023-04-02T12:37:22;93790.84;;;17.07;33.29
62978;BME280;49073;42.352;23.808;2023-04-02T12:40:24;93781.06;;;16.77;32.43
62978;BME280;49073;42.352;23.808;2023-04-02T12:43:35;93781.41;;;16.79;32.13
62978;BME280;49073;42.352;23.808;2023-04-02T12:46:38;93777.34;;;16.70;30.19
62978;BME280;49073;42.352;23.808;2023-04-02T12:49:43;93771.84;;;17.14;30.33
62978;BME280;49073;42.352;23.808;2023-04-02T12:52:50;93773.31;;;17.19;32.02
62978;BME280;49073;42.352;23.808;2023-04-02T12:55:52;93763.31;;;16.99;31.90
62978;BME280;49073;42.352;23.808;2023-04-02T12:58:58;93773.53;;;16.88;31.46
62978;BME280;49073;42.352;23.808;2023-04-02T13:02:02;93780.22;;;16.39;35.22
62978;BME280;49073;42.352;23.808;2023-04-02T13:05:37;93776.13;;;15.87;37.05
62978;BME280;49073;42.352;23.808;2023-04-02T13:08:41;93772.19;;;15.68;38.39
62978;BME280;49073;42.352;23.808;2023-04-02T13:11:42;93773.31;;;15.70;38.47
62978;BME280;49073;42.352;23.808;2023-04-02T13:14:42;93780.78;;;15.59;38.48
62978;BME280;49073;42.352;23.808;2023-04-02T13:17:46;93778.38;;;15.65;37.71
62978;BME280;49073;42.352;23.808;2023-04-02T13:21:21;93787.66;;;15.60;38.58
62978;BME280;49073;42.352;23.808;2023-04-02T13:24:25;93792.41;;;15.52;38.59
62978;BME280;49073;42.352;23.808;2023-04-02T13:27:25;93773.63;;;15.49;39.24
62978;BME280;49073;42.352;23.808;2023-04-02T13:30:27;93779.31;;;15.54;39.64
62978;BME280;49073;42.352;23.808;2023-04-02T13:33:28;93780.13;;;15.75;40.15
62978;BME280;49073;42.352;23.808;2023-04-02T13:36:29;93777.06;;;16.24;40.25
62978;BME280;49073;42.352;23.808;2023-04-02T13:39:29;93770.53;;;16.02;39.28
62978;BME280;49073;42.352;23.808;2023-04-02T13:42:30;93765.53;;;15.76;39.35
62978;BME280;49073;42.352;23.808;2023-04-02T13:45:40;93773.81;;;16.33;38.87
62978;BME280;49073;42.352;23.808;2023-04-02T13:48:41;93767.94;;;16.38;38.49
62978;BME280;49073;42.352;23.808;2023-04-02T13:51:45;93760.47;;;16.50;38.31
62978;BME280;49073;42.352;23.808;2023-04-02T13:54:53;93768.38;;;16.37;38.47
62978;BME280;49073;42.352;23.808;2023-04-02T13:57:57;93763.41;;;15.91;38.58
62978;BME280;49073;42.352;23.808;2023-04-02T14:00:59;93766.75;;;15.48;38.85
62978;BME280;49073;42.352;23.808;2023-04-02T14:04:00;93779.13;;;15.14;39.61
62978;BME280;49073;42.352;23.808;2023-04-02T14:11:10;93787.63;;;15.09;40.45
62978;BME280;49073;42.352;23.808;2023-04-02T14:17:54;93777.22;;;14.83;40.94
62978;BME280;49073;42.352;23.808;2023-04-02T14:24:55;93791.47;;;15.08;37.57
62978;BME280;49073;42.352;23.808;2023-04-02T14:31:31;93783.75;;;15.13;36.31
62978;BME280;49073;42.352;23.808;2023-04-02T14:34:43;93791.81;;;15.10;38.25
62978;BME280;49073;42.352;23.808;2023-04-02T14:41:09;93789.25;;;15.03;36.82
62978;BME280;49073;42.352;23.808;2023-04-02T14:44:14;93788.19;;;14.96;36.86
62978;BME280;49073;42.352;23.808;2023-04-02T14:47:24;93784.00;;;14.92;37.06
62978;BME280;49073;42.352;23.808;2023-04-02T14:50:38;93777.84;;;14.95;37.13
62978;BME280;49073;42.352;23.808;2023-04-02T14:54:03;93786.44;;;14.82;36.75
62978;BME280;49073;42.352;23.808;2023-04-02T14:57:22;93791.31;;;14.91;37.53
62978;BME280;49073;42.352;23.808;2023-04-02T15:00:36;93786.75;;;14.88;37.26
62978;BME280;49073;42.352;23.808;2023-04-02T15:04:03;93806.06;;;14.76;36.55
62978;BME280;49073;42.352;23.808;2023-04-02T15:07:16;93807.63;;;14.69;36.35
62978;BME280;49073;42.352;23.808;2023-04-02T15:10:30;93803.84;;;14.63;37.59
62978;BME280;49073;42.352;23.808;2023-04-02T15:14:00;93805.47;;;14.57;37.06
62978;BME280;49073;42.352;23.808;2023-04-02T15:17:03;93814.28;;;14.58;37.63
62978;BME280;49073;42.352;23.808;2023-04-02T15:20:15;93809.94;;;14.67;37.56
62978;BME280;49073;42.352;23.808;2023-04-02T15:33:49;93820.28;;;15.04;36.57
62978;BME280;49073;42.352;23.808;2023-04-02T15:37:38;93809.22;;;14.98;36.09
62978;BME280;49073;42.352;23.808;2023-04-02T15:40:47;93811.19;;;14.94;35.59
62978;BME280;49073;42.352;23.808;2023-04-02T15:44:16;93823.88;;;14.90;35.62
62978;BME280;49073;42.352;23.808;2023-04-02T15:47:35;93819.88;;;14.74;35.97
62978;BME280;49073;42.352;23.808;2023-04-02T15:50:50;93818.75;;;14.68;37.03
62978;BME280;49073;42.352;23.808;2023-04-02T16:10:47;93834.88;;;14.26;39.39
62978;BME280;49073;42.352;23.808;2023-04-02T16:13:47;93823.44;;;14.22;38.90
62978;BME280;49073;42.352;23.808;2023-04-02T16:16:50;93828.81;;;14.22;38.67
62978;BME280;49073;42.352;23.808;2023-04-02T16:19:55;93821.59;;;14.15;39.18
62978;BME280;49073;42.352;23.808;2023-04-02T16:23:01;93819.28;;;14.14;39.09
62978;BME280;49073;42.352;23.808;2023-04-02T16:26:30;93820.50;;;14.05;38.27
62978;BME280;49073;42.352;23.808;2023-04-02T16:39:37;93845.13;;;13.93;39.05
62978;BME280;49073;42.352;23.808;2023-04-02T16:43:32;93836.03;;;13.79;39.17
62978;BME280;49073;42.352;23.808;2023-04-02T16:46:15;93845.59;;;13.80;39.53
62978;BME280;49073;42.352;23.808;2023-04-02T16:59:54;93848.88;;;13.50;42.19
62978;BME280;49073;42.352;23.808;2023-04-02T17:03:44;93858.06;;;13.45;41.96
62978;BME280;49073;42.352;23.808;2023-04-02T17:13:51;93861.28;;;13.07;42.53
62978;BME280;49073;42.352;23.808;2023-04-02T17:17:04;93867.03;;;13.06;42.41
62978;BME280;49073;42.352;23.808;2023-04-02T17:20:17;93871.19;;;13.10;42.03
62978;BME280;49073;42.352;23.808;2023-04-02T17:23:19;93877.69;;;13.09;42.20
62978;BME280;49073;42.352;23.808;2023-04-02T17:26:21;93879.63;;;13.09;41.79
62978;BME280;49073;42.352;23.808;2023-04-02T17:29:43;93885.72;;;13.09;41.22
62978;BME280;49073;42.352;23.808;2023-04-02T17:32:44;93896.41;;;13.13;41.28
62978;BME280;49073;42.352;23.808;2023-04-02T17:39:35;93905.25;;;12.99;42.90
62978;BME280;49073;42.352;23.808;2023-04-02T17:45:52;93916.00;;;12.85;45.11
62978;BME280;49073;42.352;23.808;2023-04-02T17:49:04;93910.28;;;12.83;45.34
62978;BME280;49073;42.352;23.808;2023-04-02T17:52:36;93917.19;;;12.65;46.25
62978;BME280;49073;42.352;23.808;2023-04-02T17:56:17;93910.72;;;12.41;47.50
62978;BME280;49073;42.352;23.808;2023-04-02T18:03:06;93918.72;;;11.90;47.89
62978;BME280;49073;42.352;23.808;2023-04-02T18:06:19;93918.31;;;11.81;49.80
62978;BME280;49073;42.352;23.808;2023-04-02T18:09:49;93919.81;;;11.53;49.72
62978;BME280;49073;42.352;23.808;2023-04-02T18:13:31;93924.63;;;11.18;51.82
62978;BME280;49073;42.352;23.808;2023-04-02T18:24:01;93929.75;;;10.68;50.65
62978;BME280;49073;42.352;23.808;2023-04-02T18:30:46;93942.63;;;10.62;49.57
62978;BME280;49073;42.352;23.808;2023-04-02T18:36:59;93951.28;;;10.48;49.80
62978;BME280;49073;42.352;23.808;2023-04-02T18:46:30;93962.94;;;10.32;50.61
62978;BME280;49073;42.352;23.808;2023-04-02T18:49:36;93974.34;;;10.29;50.95
62978;BME280;49073;42.352;23.808;2023-04-02T18:52:40;93972.03;;;10.24;51.82
62978;BME280;49073;42.352;23.808;2023-04-02T18:55:54;93984.09;;;10.14;52.21
62978;BME280;49073;42.352;23.808;2023-04-02T19:02:39;93994.25;;;10.01;53.43
62978;BME280;49073;42.352;23.808;2023-04-02T19:05:50;93996.03;;;9.90;53.65
62978;BME280;49073;42.352;23.808;2023-04-02T19:09:14;94002.56;;;9.58;54.83
62978;BME280;49073;42.352;23.808;2023-04-02T19:12:21;93997.84;;;9.44;56.80
62978;BME280;49073;42.352;23.808;2023-04-02T19:15:28;94010.59;;;9.31;55.68
62978;BME280;49073;42.352;23.808;2023-04-02T19:25:55;94033.69;;;8.97;58.37
62978;BME280;49073;42.352;23.808;2023-04-02T19:30:09;94042.63;;;8.85;57.63
62978;BME280;49073;42.352;23.808;2023-04-02T19:45:38;94041.81;;;8.34;58.84
62978;BME280;49073;42.352;23.808;2023-04-02T19:48:58;94036.19;;;8.16;60.68
62978;BME280;49073;42.352;23.808;2023-04-02T19:52:03;94040.34;;;8.13;60.93
62978;BME280;49073;42.352;23.808;2023-04-02T19:55:04;94054.91;;;8.23;59.64
62978;BME280;49073;42.352;23.808;2023-04-02T19:58:05;94049.53;;;8.20;58.49
62978;BME280;49073;42.352;23.808;2023-04-02T20:01:06;94037.84;;;8.24;57.90
62978;BME280;49073;42.352;23.808;2023-04-02T20:04:07;94033.75;;;8.50;55.73
62978;BME280;49073;42.352;23.808;2023-04-02T20:07:08;94037.00;;;8.90;54.74
62978;BME280;49073;42.352;23.808;2023-04-02T20:10:09;94043.75;;;8.84;55.04
62978;BME280;49073;42.352;23.808;2023-04-02T20:13:09;94032.91;;;8.69;56.72
62978;BME280;49073;42.352;23.808;2023-04-02T20:16:10;94038.16;;;8.42;57.79
62978;BME280;49073;42.352;23.808;2023-04-02T20:19:11;94043.75;;;8.37;57.70
62978;BME280;49073;42.352;23.808;2023-04-02T20:22:12;94040.56;;;8.28;58.71
62978;BME280;49073;42.352;23.808;2023-04-02T20:25:13;94031.00;;;8.23;60.77
62978;BME280;49073;42.352;23.808;2023-04-02T20:28:13;94028.41;;;8.04;59.54
62978;BME280;49073;42.352;23.808;2023-04-02T20:31:16;94034.72;;;7.95;60.13
62978;BME280;49073;42.352;23.808;2023-04-02T20:34:18;94042.78;;;8.03;60.38
62978;BME280;49073;42.352;23.808;2023-04-02T20:37:19;94026.50;;;7.81;59.84
62978;BME280;49073;42.352;23.808;2023-04-02T20:40:19;94037.03;;;7.97;60.03
62978;BME280;49073;42.352;23.808;2023-04-02T20:43:20;94040.50;;;8.01;59.96
62978;BME280;49073;42.352;23.808;2023-04-02T20:46:22;94035.72;;;7.87;58.81
62978;BME280;49073;42.352;23.808;2023-04-02T20:49:23;94047.84;;;7.49;60.38